sensor_id;sensor_type;location;lat;lon;timestamp;P1;durP1;ratioP1;P2;durP2;ratioP2
61785;SDS011;47692;53.714;11.372;2022-10-26T05:49:58;13.02;;;8.50;;
61785;SDS011;47692;53.714;11.372;2022-10-26T05:52:23;12.57;;;8.40;;
61785;SDS011;47692;53.714;11.372;2022-10-26T05:54:49;14.50;;;9.07;;
61785;SDS011;47692;53.714;11.372;2022-10-26T05:57:15;13.25;;;8.43;;
61785;SDS011;47692;53.714;11.372;2022-10-26T05:59:40;14.57;;;9.02;;
61785;SDS011;47692;53.714;11.372;2022-10-26T06:02:23;13.90;;;8.65;;
61785;SDS011;47692;53.714;11.372;2022-10-26T06:04:56;13.03;;;8.90;;
61785;SDS011;47692;53.714;11.372;2022-10-26T06:07:28;13.75;;;8.55;;
61785;SDS011;47692;53.714;11.372;2022-10-26T06:09:53;13.82;;;8.55;;
61785;SDS011;47692;53.714;11.372;2022-10-26T06:12:19;14.63;;;9.00;;
61785;SDS011;47692;53.714;11.372;2022-10-26T06:14:45;15.00;;;8.80;;
61785;SDS011;47692;53.714;11.372;2022-10-26T06:17:14;14.70;;;9.03;;
61785;SDS011;47692;53.714;11.372;2022-10-26T06:31:09;20.27;;;9.30;;
61785;SDS011;47692;53.714;11.372;2022-10-26T06:33:36;15.10;;;9.13;;
61785;SDS011;47692;53.714;11.372;2022-10-26T06:38:31;15.77;;;9.13;;
61785;SDS011;47692;53.714;11.372;2022-10-26T06:41:02;14.70;;;8.73;;
61785;SDS011;47692;53.714;11.372;2022-10-26T06:43:29;14.70;;;9.27;;
61785;SDS011;47692;53.714;11.372;2022-10-26T06:49:06;13.70;;;8.77;;
61785;SDS011;47692;53.714;11.372;2022-10-26T06:51:52;15.55;;;8.60;;
61785;SDS011;47692;53.714;11.372;2022-10-26T06:57:16;13.13;;;7.75;;
61785;SDS011;47692;53.714;11.372;2022-10-26T06:59:52;13.57;;;7.45;;
61785;SDS011;47692;53.714;11.372;2022-10-26T07:02:21;11.75;;;7.30;;
61785;SDS011;47692;53.714;11.372;2022-10-26T07:04:46;10.17;;;7.00;;
61785;SDS011;47692;53.714;11.372;2022-10-26T07:07:21;16.73;;;7.50;;
61785;SDS011;47692;53.714;11.372;2022-10-26T07:09:49;17.95;;;7.75;;
61785;SDS011;47692;53.714;11.372;2022-10-26T07:12:14;19.93;;;7.87;;
61785;SDS011;47692;53.714;11.372;2022-10-26T07:14:40;27.17;;;7.67;;
61785;SDS011;47692;53.714;11.372;2022-10-26T07:17:05;29.60;;;8.73;;
61785;SDS011;47692;53.714;11.372;2022-10-26T07:19:31;34.00;;;8.37;;
61785;SDS011;47692;53.714;11.372;2022-10-26T07:21:57;22.30;;;8.53;;
61785;SDS011;47692;53.714;11.372;2022-10-26T07:24:25;41.03;;;9.90;;
61785;SDS011;47692;53.714;11.372;2022-10-26T07:26:54;48.35;;;10.13;;
61785;SDS011;47692;53.714;11.372;2022-10-26T07:29:21;40.83;;;9.82;;
61785;SDS011;47692;53.714;11.372;2022-10-26T07:31:47;38.13;;;9.70;;
61785;SDS011;47692;53.714;11.372;2022-10-26T07:34:12;25.77;;;9.17;;
61785;SDS011;47692;53.714;11.372;2022-10-26T07:36:38;32.93;;;9.83;;
61785;SDS011;47692;53.714;11.372;2022-10-26T07:39:04;21.77;;;8.93;;
61785;SDS011;47692;53.714;11.372;2022-10-26T07:41:30;27.50;;;9.50;;
61785;SDS011;47692;53.714;11.372;2022-10-26T07:43:55;23.23;;;10.27;;
61785;SDS011;47692;53.714;11.372;2022-10-26T07:46:21;26.10;;;10.20;;
61785;SDS011;47692;53.714;11.372;2022-10-26T07:48:47;22.23;;;10.63;;
61785;SDS011;47692;53.714;11.372;2022-10-26T07:51:12;20.23;;;10.43;;
61785;SDS011;47692;53.714;11.372;2022-10-26T07:53:38;19.98;;;10.25;;
61785;SDS011;47692;53.714;11.372;2022-10-26T07:56:03;31.10;;;11.00;;
61785;SDS011;47692;53.714;11.372;2022-10-26T07:58:29;24.92;;;11.30;;
61785;SDS011;47692;53.714;11.372;2022-10-26T08:00:54;27.10;;;11.38;;
61785;SDS011;47692;53.714;11.372;2022-10-26T08:03:20;21.83;;;11.60;;
61785;SDS011;47692;53.714;11.372;2022-10-26T08:05:49;19.30;;;10.93;;
61785;SDS011;47692;53.714;11.372;2022-10-26T08:08:18;24.52;;;12.30;;
61785;SDS011;47692;53.714;11.372;2022-10-26T08:10:44;20.48;;;12.73;;
61785;SDS011;47692;53.714;11.372;2022-10-26T08:13:10;21.77;;;11.50;;
61785;SDS011;47692;53.714;11.372;2022-10-26T08:15:35;23.63;;;12.50;;
61785;SDS011;47692;53.714;11.372;2022-10-26T08:18:01;22.30;;;13.13;;
61785;SDS011;47692;53.714;11.372;2022-10-26T08:20:26;19.17;;;11.97;;
61785;SDS011;47692;53.714;11.372;2022-10-26T09:43:19;11.05;;;6.68;;
